sensor_id;sensor_type;location;lat;lon;timestamp;P1;durP1;ratioP1;P2;durP2;ratioP2
25049;SDS011;13046;49.814;9.918;2023-12-20T00:01:42;25.50;;;18.38;;
25049;SDS011;13046;49.814;9.918;2023-12-20T00:04:08;25.33;;;19.48;;
25049;SDS011;13046;49.814;9.918;2023-12-20T00:06:34;21.70;;;16.92;;
25049;SDS011;13046;49.814;9.918;2023-12-20T00:09:00;23.88;;;17.95;;
25049;SDS011;13046;49.814;9.918;2023-12-20T00:11:26;27.05;;;17.10;;
25049;SDS011;13046;49.814;9.918;2023-12-20T00:13:52;20.88;;;16.15;;
25049;SDS011;13046;49.814;9.918;2023-12-20T00:16:18;23.83;;;17.98;;
25049;SDS011;13046;49.814;9.918;2023-12-20T00:18:44;19.67;;;16.45;;
25049;SDS011;13046;49.814;9.918;2023-12-20T00:21:10;21.83;;;15.85;;
25049;SDS011;13046;49.814;9.918;2023-12-20T00:23:36;22.15;;;16.17;;
25049;SDS011;13046;49.814;9.918;2023-12-20T00:26:02;25.38;;;16.20;;
25049;SDS011;13046;49.814;9.918;2023-12-20T00:28:29;16.80;;;13.48;;
25049;SDS011;13046;49.814;9.918;2023-12-20T00:30:55;23.98;;;14.95;;
25049;SDS011;13046;49.814;9.918;2023-12-20T00:33:21;22.25;;;14.77;;
25049;SDS011;13046;49.814;9.918;2023-12-20T00:35:47;17.08;;;14.30;;
25049;SDS011;13046;49.814;9.918;2023-12-20T00:38:13;17.92;;;13.95;;
25049;SDS011;13046;49.814;9.918;2023-12-20T00:40:39;16.00;;;11.95;;
25049;SDS011;13046;49.814;9.918;2023-12-20T00:43:06;7.38;;;6.57;;
25049;SDS011;13046;49.814;9.918;2023-12-20T00:45:32;7.18;;;6.00;;
25049;SDS011;13046;49.814;9.918;2023-12-20T00:47:58;6.38;;;5.75;;
25049;SDS011;13046;49.814;9.918;2023-12-20T00:50:24;5.35;;;4.18;;
25049;SDS011;13046;49.814;9.918;2023-12-20T00:52:50;4.95;;;3.83;;
25049;SDS011;13046;49.814;9.918;2023-12-20T00:55:16;7.80;;;7.00;;
25049;SDS011;13046;49.814;9.918;2023-12-20T00:57:42;8.98;;;8.07;;
25049;SDS011;13046;49.814;9.918;2023-12-20T01:00:09;12.90;;;10.68;;
25049;SDS011;13046;49.814;9.918;2023-12-20T01:02:35;3.50;;;3.20;;
25049;SDS011;13046;49.814;9.918;2023-12-20T01:05:01;4.95;;;2.95;;
25049;SDS011;13046;49.814;9.918;2023-12-20T01:07:28;3.40;;;2.60;;
25049;SDS011;13046;49.814;9.918;2023-12-20T01:09:54;3.38;;;3.08;;
25049;SDS011;13046;49.814;9.918;2023-12-20T01:12:20;7.03;;;2.72;;
25049;SDS011;13046;49.814;9.918;2023-12-20T01:14:46;4.28;;;2.10;;
25049;SDS011;13046;49.814;9.918;2023-12-20T01:17:12;2.15;;;1.95;;
25049;SDS011;13046;49.814;9.918;2023-12-20T01:19:38;2.28;;;2.08;;
25049;SDS011;13046;49.814;9.918;2023-12-20T01:22:04;2.20;;;2.00;;
25049;SDS011;13046;49.814;9.918;2023-12-20T01:24:30;1.77;;;1.65;;
25049;SDS011;13046;49.814;9.918;2023-12-20T01:26:57;2.53;;;1.90;;
25049;SDS011;13046;49.814;9.918;2023-12-20T01:29:23;1.55;;;1.45;;
25049;SDS011;13046;49.814;9.918;2023-12-20T01:31:49;1.85;;;1.75;;
25049;SDS011;13046;49.814;9.918;2023-12-20T01:34:15;1.67;;;1.40;;
25049;SDS011;13046;49.814;9.918;2023-12-20T01:36:42;2.10;;;1.88;;
25049;SDS011;13046;49.814;9.918;2023-12-20T01:39:08;1.58;;;1.48;;
25049;SDS011;13046;49.814;9.918;2023-12-20T01:41:34;1.30;;;1.20;;
25049;SDS011;13046;49.814;9.918;2023-12-20T01:44:00;2.40;;;1.40;;
25049;SDS011;13046;49.814;9.918;2023-12-20T01:46:26;1.23;;;1.20;;
25049;SDS011;13046;49.814;9.918;2023-12-20T01:48:52;1.30;;;1.20;;
25049;SDS011;13046;49.814;9.918;2023-12-20T01:51:18;1.35;;;1.25;;
25049;SDS011;13046;49.814;9.918;2023-12-20T01:53:45;1.00;;;1.00;;
25049;SDS011;13046;49.814;9.918;2023-12-20T01:56:12;1.40;;;1.30;;
25049;SDS011;13046;49.814;9.918;2023-12-20T01:58:44;1.30;;;1.20;;
25049;SDS011;13046;49.814;9.918;2023-12-20T02:01:11;1.40;;;1.27;;
25049;SDS011;13046;49.814;9.918;2023-12-20T02:03:39;1.08;;;1.05;;
25049;SDS011;13046;49.814;9.918;2023-12-20T02:06:05;1.25;;;1.15;;
25049;SDS011;13046;49.814;9.918;2023-12-20T02:08:31;1.20;;;1.10;;
25049;SDS011;13046;49.814;9.918;2023-12-20T02:10:57;1.17;;;1.08;;
25049;SDS011;13046;49.814;9.918;2023-12-20T02:13:23;2.22;;;1.77;;
25049;SDS011;13046;49.814;9.918;2023-12-20T02:15:51;1.17;;;1.00;;
25049;SDS011;13046;49.814;9.918;2023-12-20T02:18:17;1.23;;;1.00;;
25049;SDS011;13046;49.814;9.918;2023-12-20T02:20:44;1.40;;;1.08;;
25049;SDS011;13046;49.814;9.918;2023-12-20T02:23:10;1.05;;;0.90;;
25049;SDS011;13046;49.814;9.918;2023-12-20T02:25:36;1.40;;;1.10;;
25049;SDS011;13046;49.814;9.918;2023-12-20T02:28:02;1.20;;;1.10;;
25049;SDS011;13046;49.814;9.918;2023-12-20T02:30:29;1.40;;;1.30;;
25049;SDS011;13046;49.814;9.918;2023-12-20T02:32:55;2.45;;;1.15;;
25049;SDS011;13046;49.814;9.918;2023-12-20T02:35:22;2.10;;;1.40;;
25049;SDS011;13046;49.814;9.918;2023-12-20T02:37:48;1.50;;;1.40;;
25049;SDS011;13046;49.814;9.918;2023-12-20T02:40:14;3.88;;;2.38;;
25049;SDS011;13046;49.814;9.918;2023-12-20T02:42:40;1.60;;;1.50;;
25049;SDS011;13046;49.814;9.918;2023-12-20T02:45:07;1.70;;;1.60;;
25049;SDS011;13046;49.814;9.918;2023-12-20T02:47:33;1.50;;;1.40;;
25049;SDS011;13046;49.814;9.918;2023-12-20T02:49:59;1.20;;;1.10;;
25049;SDS011;13046;49.814;9.918;2023-12-20T02:52:27;2.60;;;1.20;;
25049;SDS011;13046;49.814;9.918;2023-12-20T02:54:53;1.92;;;1.52;;
25049;SDS011;13046;49.814;9.918;2023-12-20T02:57:20;1.98;;;1.77;;
25049;SDS011;13046;49.814;9.918;2023-12-20T02:59:46;1.50;;;1.40;;
25049;SDS011;13046;49.814;9.918;2023-12-20T03:02:12;1.17;;;1.10;;
25049;SDS011;13046;49.814;9.918;2023-12-20T03:04:38;1.60;;;1.45;;
25049;SDS011;13046;49.814;9.918;2023-12-20T03:07:04;1.23;;;1.10;;
25049;SDS011;13046;49.814;9.918;2023-12-20T03:09:30;2.45;;;1.13;;
25049;SDS011;13046;49.814;9.918;2023-12-20T03:11:56;1.50;;;1.23;;
25049;SDS011;13046;49.814;9.918;2023-12-20T03:14:22;1.40;;;1.35;;
25049;SDS011;13046;49.814;9.918;2023-12-20T03:16:51;1.20;;;1.10;;
25049;SDS011;13046;49.814;9.918;2023-12-20T03:19:17;1.30;;;1.20;;
25049;SDS011;13046;49.814;9.918;2023-12-20T03:21:44;1.38;;;1.20;;
25049;SDS011;13046;49.814;9.918;2023-12-20T03:24:10;1.83;;;1.10;;
25049;SDS011;13046;49.814;9.918;2023-12-20T03:26:37;1.20;;;1.10;;
25049;SDS011;13046;49.814;9.918;2023-12-20T03:29:03;1.52;;;1.27;;
25049;SDS011;13046;49.814;9.918;2023-12-20T03:31:29;1.35;;;1.05;;
25049;SDS011;13046;49.814;9.918;2023-12-20T03:33:55;1.50;;;1.17;;
25049;SDS011;13046;49.814;9.918;2023-12-20T03:36:21;1.88;;;1.60;;
25049;SDS011;13046;49.814;9.918;2023-12-20T03:38:47;1.20;;;1.10;;
25049;SDS011;13046;49.814;9.918;2023-12-20T03:41:13;1.40;;;1.30;;
25049;SDS011;13046;49.814;9.918;2023-12-20T03:43:39;1.33;;;1.23;;
25049;SDS011;13046;49.814;9.918;2023-12-20T03:46:08;1.30;;;1.20;;
25049;SDS011;13046;49.814;9.918;2023-12-20T03:48:34;1.60;;;1.50;;
25049;SDS011;13046;49.814;9.918;2023-12-20T03:51:00;8.82;;;7.95;;
25049;SDS011;13046;49.814;9.918;2023-12-20T03:53:27;5.68;;;5.28;;
25049;SDS011;13046;49.814;9.918;2023-12-20T03:55:53;1.55;;;1.45;;
25049;SDS011;13046;49.814;9.918;2023-12-20T03:58:19;1.88;;;1.77;;
25049;SDS011;13046;49.814;9.918;2023-12-20T04:00:45;1.77;;;1.52;;
25049;SDS011;13046;49.814;9.918;2023-12-20T04:03:11;1.38;;;1.25;;
25049;SDS011;13046;49.814;9.918;2023-12-20T04:05:40;1.30;;;1.20;;
25049;SDS011;13046;49.814;9.918;2023-12-20T04:08:07;1.48;;;1.27;;
25049;SDS011;13046;49.814;9.918;2023-12-20T04:10:33;1.33;;;1.20;;
25049;SDS011;13046;49.814;9.918;2023-12-20T04:12:59;1.38;;;1.27;;
25049;SDS011;13046;49.814;9.918;2023-12-20T04:15:25;0.95;;;0.95;;
25049;SDS011;13046;49.814;9.918;2023-12-20T04:17:51;1.27;;;1.17;;
25049;SDS011;13046;49.814;9.918;2023-12-20T04:20:18;0.95;;;0.93;;
25049;SDS011;13046;49.814;9.918;2023-12-20T04:22:44;0.98;;;0.98;;
25049;SDS011;13046;49.814;9.918;2023-12-20T04:25:10;1.45;;;1.30;;
25049;SDS011;13046;49.814;9.918;2023-12-20T04:27:36;1.58;;;1.48;;
25049;SDS011;13046;49.814;9.918;2023-12-20T04:30:02;1.65;;;1.05;;
25049;SDS011;13046;49.814;9.918;2023-12-20T04:32:28;2.00;;;1.27;;
25049;SDS011;13046;49.814;9.918;2023-12-20T04:34:55;1.52;;;1.42;;
25049;SDS011;13046;49.814;9.918;2023-12-20T04:37:21;1.30;;;1.13;;
25049;SDS011;13046;49.814;9.918;2023-12-20T04:39:47;1.65;;;1.45;;
25049;SDS011;13046;49.814;9.918;2023-12-20T04:42:13;1.83;;;1.73;;
25049;SDS011;13046;49.814;9.918;2023-12-20T04:44:39;2.92;;;1.10;;
25049;SDS011;13046;49.814;9.918;2023-12-20T04:47:05;1.27;;;1.20;;
25049;SDS011;13046;49.814;9.918;2023-12-20T04:49:32;1.58;;;1.48;;
25049;SDS011;13046;49.814;9.918;2023-12-20T04:51:58;2.35;;;1.40;;
25049;SDS011;13046;49.814;9.918;2023-12-20T04:54:24;1.10;;;1.10;;
25049;SDS011;13046;49.814;9.918;2023-12-20T04:56:50;2.55;;;1.48;;
25049;SDS011;13046;49.814;9.918;2023-12-20T04:59:16;1.83;;;1.40;;
25049;SDS011;13046;49.814;9.918;2023-12-20T05:01:42;1.33;;;1.23;;
25049;SDS011;13046;49.814;9.918;2023-12-20T05:04:08;1.80;;;1.70;;
25049;SDS011;13046;49.814;9.918;2023-12-20T05:06:34;1.50;;;1.40;;
25049;SDS011;13046;49.814;9.918;2023-12-20T05:09:00;1.60;;;1.50;;
25049;SDS011;13046;49.814;9.918;2023-12-20T05:11:26;1.77;;;1.67;;
25049;SDS011;13046;49.814;9.918;2023-12-20T05:13:52;1.70;;;1.60;;
25049;SDS011;13046;49.814;9.918;2023-12-20T05:16:18;2.33;;;2.08;;
25049;SDS011;13046;49.814;9.918;2023-12-20T05:18:44;3.00;;;2.72;;
25049;SDS011;13046;49.814;9.918;2023-12-20T05:21:10;3.30;;;2.95;;
25049;SDS011;13046;49.814;9.918;2023-12-20T05:23:37;2.75;;;2.50;;
25049;SDS011;13046;49.814;9.918;2023-12-20T05:26:03;3.65;;;2.60;;
25049;SDS011;13046;49.814;9.918;2023-12-20T05:28:28;3.97;;;3.40;;
25049;SDS011;13046;49.814;9.918;2023-12-20T05:30:54;3.97;;;3.67;;
25049;SDS011;13046;49.814;9.918;2023-12-20T05:33:20;2.70;;;2.50;;
25049;SDS011;13046;49.814;9.918;2023-12-20T05:35:47;2.80;;;2.60;;
25049;SDS011;13046;49.814;9.918;2023-12-20T05:38:12;3.50;;;3.20;;
25049;SDS011;13046;49.814;9.918;2023-12-20T05:40:38;4.88;;;3.40;;
25049;SDS011;13046;49.814;9.918;2023-12-20T05:43:04;3.25;;;2.83;;
25049;SDS011;13046;49.814;9.918;2023-12-20T05:45:30;3.20;;;3.00;;
25049;SDS011;13046;49.814;9.918;2023-12-20T05:47:56;4.05;;;3.63;;
25049;SDS011;13046;49.814;9.918;2023-12-20T05:50:23;3.17;;;2.90;;
25049;SDS011;13046;49.814;9.918;2023-12-20T05:52:50;3.63;;;3.33;;
25049;SDS011;13046;49.814;9.918;2023-12-20T05:55:16;3.22;;;2.92;;
25049;SDS011;13046;49.814;9.918;2023-12-20T05:57:42;3.55;;;3.35;;
25049;SDS011;13046;49.814;9.918;2023-12-20T06:00:08;3.42;;;3.13;;
25049;SDS011;13046;49.814;9.918;2023-12-20T06:02:38;4.28;;;3.97;;
25049;SDS011;13046;49.814;9.918;2023-12-20T06:05:05;3.42;;;3.20;;
25049;SDS011;13046;49.814;9.918;2023-12-20T06:07:31;4.30;;;3.58;;
25049;SDS011;13046;49.814;9.918;2023-12-20T06:09:56;3.45;;;3.15;;
25049;SDS011;13046;49.814;9.918;2023-12-20T06:12:22;4.55;;;3.33;;
25049;SDS011;13046;49.814;9.918;2023-12-20T06:14:48;3.28;;;2.97;;
25049;SDS011;13046;49.814;9.918;2023-12-20T06:17:14;3.25;;;2.83;;
25049;SDS011;13046;49.814;9.918;2023-12-20T06:19:40;3.40;;;3.10;;
25049;SDS011;13046;49.814;9.918;2023-12-20T06:22:10;2.90;;;2.70;;
25049;SDS011;13046;49.814;9.918;2023-12-20T06:24:36;3.50;;;3.20;;
25049;SDS011;13046;49.814;9.918;2023-12-20T06:27:01;3.63;;;3.33;;
25049;SDS011;13046;49.814;9.918;2023-12-20T06:29:27;3.72;;;3.38;;
25049;SDS011;13046;49.814;9.918;2023-12-20T06:31:53;4.55;;;3.58;;
25049;SDS011;13046;49.814;9.918;2023-12-20T06:34:19;3.90;;;3.47;;
25049;SDS011;13046;49.814;9.918;2023-12-20T06:36:44;5.55;;;4.10;;
25049;SDS011;13046;49.814;9.918;2023-12-20T06:39:10;4.53;;;4.13;;
25049;SDS011;13046;49.814;9.918;2023-12-20T06:41:37;4.25;;;3.85;;
25049;SDS011;13046;49.814;9.918;2023-12-20T06:44:03;5.15;;;4.57;;
25049;SDS011;13046;49.814;9.918;2023-12-20T06:46:29;5.68;;;4.57;;
25049;SDS011;13046;49.814;9.918;2023-12-20T06:48:55;5.00;;;4.60;;
25049;SDS011;13046;49.814;9.918;2023-12-20T06:51:20;5.43;;;4.93;;
25049;SDS011;13046;49.814;9.918;2023-12-20T06:53:50;7.70;;;6.90;;
25049;SDS011;13046;49.814;9.918;2023-12-20T06:56:16;5.82;;;5.30;;
25049;SDS011;13046;49.814;9.918;2023-12-20T06:58:42;6.45;;;5.85;;
25049;SDS011;13046;49.814;9.918;2023-12-20T07:01:12;7.63;;;6.93;;
25049;SDS011;13046;49.814;9.918;2023-12-20T07:03:38;7.55;;;6.80;;
25049;SDS011;13046;49.814;9.918;2023-12-20T07:06:05;6.75;;;6.15;;
25049;SDS011;13046;49.814;9.918;2023-12-20T07:08:30;8.20;;;6.80;;
25049;SDS011;13046;49.814;9.918;2023-12-20T07:10:56;6.10;;;5.47;;
25049;SDS011;13046;49.814;9.918;2023-12-20T07:13:22;7.57;;;5.50;;
25049;SDS011;13046;49.814;9.918;2023-12-20T07:15:49;7.00;;;6.20;;
25049;SDS011;13046;49.814;9.918;2023-12-20T07:18:15;7.13;;;6.25;;
25049;SDS011;13046;49.814;9.918;2023-12-20T07:20:41;6.38;;;5.78;;
25049;SDS011;13046;49.814;9.918;2023-12-20T07:23:08;5.65;;;4.55;;
25049;SDS011;13046;49.814;9.918;2023-12-20T07:25:34;5.20;;;4.70;;
25049;SDS011;13046;49.814;9.918;2023-12-20T07:28:00;5.35;;;4.47;;
25049;SDS011;13046;49.814;9.918;2023-12-20T07:30:25;5.85;;;5.15;;
25049;SDS011;13046;49.814;9.918;2023-12-20T07:32:51;6.90;;;5.05;;
25049;SDS011;13046;49.814;9.918;2023-12-20T07:35:18;7.78;;;5.70;;
25049;SDS011;13046;49.814;9.918;2023-12-20T07:37:43;6.35;;;5.75;;
25049;SDS011;13046;49.814;9.918;2023-12-20T07:40:09;5.63;;;5.05;;
25049;SDS011;13046;49.814;9.918;2023-12-20T07:42:35;6.70;;;5.25;;
25049;SDS011;13046;49.814;9.918;2023-12-20T07:45:01;6.40;;;5.40;;
25049;SDS011;13046;49.814;9.918;2023-12-20T07:47:27;9.25;;;6.93;;
25049;SDS011;13046;49.814;9.918;2023-12-20T07:49:53;9.65;;;7.05;;
25049;SDS011;13046;49.814;9.918;2023-12-20T07:52:20;8.18;;;7.15;;
25049;SDS011;13046;49.814;9.918;2023-12-20T07:54:47;7.47;;;6.22;;
25049;SDS011;13046;49.814;9.918;2023-12-20T07:57:13;10.82;;;9.73;;
25049;SDS011;13046;49.814;9.918;2023-12-20T07:59:39;13.23;;;8.93;;
25049;SDS011;13046;49.814;9.918;2023-12-20T08:02:05;8.20;;;7.40;;
25049;SDS011;13046;49.814;9.918;2023-12-20T08:04:32;11.55;;;6.25;;
25049;SDS011;13046;49.814;9.918;2023-12-20T08:06:58;6.43;;;5.82;;
25049;SDS011;13046;49.814;9.918;2023-12-20T08:09:25;10.02;;;5.55;;
25049;SDS011;13046;49.814;9.918;2023-12-20T08:11:51;8.65;;;5.35;;
25049;SDS011;13046;49.814;9.918;2023-12-20T08:14:17;8.65;;;6.15;;
25049;SDS011;13046;49.814;9.918;2023-12-20T08:16:43;10.77;;;6.15;;
25049;SDS011;13046;49.814;9.918;2023-12-20T08:19:09;13.50;;;10.05;;
25049;SDS011;13046;49.814;9.918;2023-12-20T08:21:36;10.20;;;5.50;;
25049;SDS011;13046;49.814;9.918;2023-12-20T08:24:02;9.10;;;4.65;;
25049;SDS011;13046;49.814;9.918;2023-12-20T08:26:28;6.00;;;4.88;;
25049;SDS011;13046;49.814;9.918;2023-12-20T08:28:54;8.32;;;4.35;;
25049;SDS011;13046;49.814;9.918;2023-12-20T08:31:20;11.70;;;3.58;;
25049;SDS011;13046;49.814;9.918;2023-12-20T08:33:47;8.93;;;3.60;;
25049;SDS011;13046;49.814;9.918;2023-12-20T08:36:13;7.32;;;3.95;;
25049;SDS011;13046;49.814;9.918;2023-12-20T08:38:39;6.07;;;3.50;;
25049;SDS011;13046;49.814;9.918;2023-12-20T08:41:06;6.65;;;4.50;;
25049;SDS011;13046;49.814;9.918;2023-12-20T08:43:33;5.20;;;4.05;;
25049;SDS011;13046;49.814;9.918;2023-12-20T08:46:00;5.47;;;3.17;;
25049;SDS011;13046;49.814;9.918;2023-12-20T08:48:26;6.28;;;3.30;;
25049;SDS011;13046;49.814;9.918;2023-12-20T08:50:52;6.32;;;3.55;;
25049;SDS011;13046;49.814;9.918;2023-12-20T08:53:18;13.38;;;7.50;;
25049;SDS011;13046;49.814;9.918;2023-12-20T08:55:45;7.60;;;3.70;;
25049;SDS011;13046;49.814;9.918;2023-12-20T08:58:11;5.90;;;3.70;;
25049;SDS011;13046;49.814;9.918;2023-12-20T09:00:37;8.45;;;3.75;;
25049;SDS011;13046;49.814;9.918;2023-12-20T09:03:04;8.27;;;3.25;;
25049;SDS011;13046;49.814;9.918;2023-12-20T09:05:30;4.40;;;3.00;;
25049;SDS011;13046;49.814;9.918;2023-12-20T09:07:56;5.15;;;3.08;;
25049;SDS011;13046;49.814;9.918;2023-12-20T09:10:22;10.43;;;3.85;;
25049;SDS011;13046;49.814;9.918;2023-12-20T09:12:49;5.13;;;2.80;;
25049;SDS011;13046;49.814;9.918;2023-12-20T09:15:16;5.78;;;3.50;;
25049;SDS011;13046;49.814;9.918;2023-12-20T09:17:42;3.75;;;2.55;;
25049;SDS011;13046;49.814;9.918;2023-12-20T09:20:09;9.80;;;3.70;;
25049;SDS011;13046;49.814;9.918;2023-12-20T09:22:35;7.63;;;3.47;;
25049;SDS011;13046;49.814;9.918;2023-12-20T09:25:03;5.22;;;2.95;;
25049;SDS011;13046;49.814;9.918;2023-12-20T09:27:29;4.55;;;3.17;;
25049;SDS011;13046;49.814;9.918;2023-12-20T09:29:55;9.48;;;2.60;;
25049;SDS011;13046;49.814;9.918;2023-12-20T09:32:21;7.15;;;2.80;;
25049;SDS011;13046;49.814;9.918;2023-12-20T09:34:47;8.25;;;3.08;;
25049;SDS011;13046;49.814;9.918;2023-12-20T09:37:14;4.38;;;2.58;;
25049;SDS011;13046;49.814;9.918;2023-12-20T09:39:40;7.95;;;3.38;;
25049;SDS011;13046;49.814;9.918;2023-12-20T09:42:06;8.88;;;2.50;;
25049;SDS011;13046;49.814;9.918;2023-12-20T09:44:33;6.93;;;2.60;;
25049;SDS011;13046;49.814;9.918;2023-12-20T09:47:06;7.57;;;3.17;;
25049;SDS011;13046;49.814;9.918;2023-12-20T09:49:32;9.68;;;2.80;;
25049;SDS011;13046;49.814;9.918;2023-12-20T09:51:59;5.90;;;2.95;;
25049;SDS011;13046;49.814;9.918;2023-12-20T09:54:26;10.50;;;3.25;;
25049;SDS011;13046;49.814;9.918;2023-12-20T09:56:54;3.97;;;2.63;;
25049;SDS011;13046;49.814;9.918;2023-12-20T09:59:20;8.45;;;2.25;;
25049;SDS011;13046;49.814;9.918;2023-12-20T10:01:47;5.13;;;2.78;;
25049;SDS011;13046;49.814;9.918;2023-12-20T10:04:14;6.68;;;3.08;;
25049;SDS011;13046;49.814;9.918;2023-12-20T10:06:41;6.15;;;2.53;;
25049;SDS011;13046;49.814;9.918;2023-12-20T10:09:08;18.77;;;10.95;;
25049;SDS011;13046;49.814;9.918;2023-12-20T10:11:38;11.95;;;6.07;;
25049;SDS011;13046;49.814;9.918;2023-12-20T10:14:05;9.38;;;4.47;;
25049;SDS011;13046;49.814;9.918;2023-12-20T10:16:31;5.72;;;3.00;;
25049;SDS011;13046;49.814;9.918;2023-12-20T10:18:58;5.22;;;3.92;;
25049;SDS011;13046;49.814;9.918;2023-12-20T10:21:25;9.38;;;4.20;;
25049;SDS011;13046;49.814;9.918;2023-12-20T10:23:51;7.40;;;3.50;;
25049;SDS011;13046;49.814;9.918;2023-12-20T10:26:21;3.75;;;2.72;;
25049;SDS011;13046;49.814;9.918;2023-12-20T10:28:52;8.38;;;3.00;;
25049;SDS011;13046;49.814;9.918;2023-12-20T10:31:34;10.65;;;3.00;;
25049;SDS011;13046;49.814;9.918;2023-12-20T10:34:00;6.20;;;2.97;;
25049;SDS011;13046;49.814;9.918;2023-12-20T10:36:31;6.97;;;3.20;;
25049;SDS011;13046;49.814;9.918;2023-12-20T10:38:57;5.63;;;2.65;;
25049;SDS011;13046;49.814;9.918;2023-12-20T10:41:25;10.52;;;2.88;;
25049;SDS011;13046;49.814;9.918;2023-12-20T10:43:53;5.10;;;2.30;;
25049;SDS011;13046;49.814;9.918;2023-12-20T10:46:24;5.60;;;3.03;;
25049;SDS011;13046;49.814;9.918;2023-12-20T10:48:51;6.32;;;2.67;;
25049;SDS011;13046;49.814;9.918;2023-12-20T10:51:19;16.80;;;2.97;;
25049;SDS011;13046;49.814;9.918;2023-12-20T10:53:47;7.25;;;2.20;;
25049;SDS011;13046;49.814;9.918;2023-12-20T10:56:15;7.82;;;3.58;;
25049;SDS011;13046;49.814;9.918;2023-12-20T10:58:42;9.63;;;3.20;;
25049;SDS011;13046;49.814;9.918;2023-12-20T11:01:08;8.02;;;4.97;;
25049;SDS011;13046;49.814;9.918;2023-12-20T11:03:35;4.88;;;3.17;;
25049;SDS011;13046;49.814;9.918;2023-12-20T11:06:05;4.45;;;2.90;;
25049;SDS011;13046;49.814;9.918;2023-12-20T11:08:38;9.73;;;4.35;;
25049;SDS011;13046;49.814;9.918;2023-12-20T11:11:13;6.18;;;3.00;;
25049;SDS011;13046;49.814;9.918;2023-12-20T11:16:27;8.60;;;4.25;;
25049;SDS011;13046;49.814;9.918;2023-12-20T11:18:52;9.73;;;5.70;;
25049;SDS011;13046;49.814;9.918;2023-12-20T11:21:19;11.50;;;4.90;;
25049;SDS011;13046;49.814;9.918;2023-12-20T11:23:45;10.23;;;5.53;;
25049;SDS011;13046;49.814;9.918;2023-12-20T11:26:11;9.75;;;3.70;;
25049;SDS011;13046;49.814;9.918;2023-12-20T11:28:41;16.17;;;6.05;;
25049;SDS011;13046;49.814;9.918;2023-12-20T11:31:06;14.30;;;7.30;;
25049;SDS011;13046;49.814;9.918;2023-12-20T11:33:37;13.23;;;6.38;;
25049;SDS011;13046;49.814;9.918;2023-12-20T11:36:06;17.17;;;7.03;;
25049;SDS011;13046;49.814;9.918;2023-12-20T11:38:39;10.55;;;3.20;;
25049;SDS011;13046;49.814;9.918;2023-12-20T11:41:22;6.70;;;3.20;;
25049;SDS011;13046;49.814;9.918;2023-12-20T11:43:49;4.90;;;3.13;;
25049;SDS011;13046;49.814;9.918;2023-12-20T11:46:19;23.27;;;10.05;;
25049;SDS011;13046;49.814;9.918;2023-12-20T11:48:44;11.63;;;5.85;;
25049;SDS011;13046;49.814;9.918;2023-12-20T11:51:12;5.03;;;3.67;;
25049;SDS011;13046;49.814;9.918;2023-12-20T11:53:39;5.15;;;3.00;;
25049;SDS011;13046;49.814;9.918;2023-12-20T11:56:06;6.60;;;3.45;;
25049;SDS011;13046;49.814;9.918;2023-12-20T11:58:32;8.55;;;4.68;;
25049;SDS011;13046;49.814;9.918;2023-12-20T12:01:01;7.53;;;4.85;;
25049;SDS011;13046;49.814;9.918;2023-12-20T12:03:27;6.88;;;4.15;;
25049;SDS011;13046;49.814;9.918;2023-12-20T12:05:53;5.82;;;3.17;;
25049;SDS011;13046;49.814;9.918;2023-12-20T12:08:19;6.63;;;3.08;;
25049;SDS011;13046;49.814;9.918;2023-12-20T12:10:45;8.10;;;3.30;;
25049;SDS011;13046;49.814;9.918;2023-12-20T12:13:12;8.57;;;3.47;;
25049;SDS011;13046;49.814;9.918;2023-12-20T12:15:39;7.10;;;2.88;;
25049;SDS011;13046;49.814;9.918;2023-12-20T12:18:07;5.15;;;2.78;;
25049;SDS011;13046;49.814;9.918;2023-12-20T12:20:33;8.95;;;4.35;;
25049;SDS011;13046;49.814;9.918;2023-12-20T12:23:04;5.85;;;2.40;;
25049;SDS011;13046;49.814;9.918;2023-12-20T12:25:30;5.40;;;3.20;;
25049;SDS011;13046;49.814;9.918;2023-12-20T12:27:57;6.88;;;5.55;;
25049;SDS011;13046;49.814;9.918;2023-12-20T12:30:24;6.30;;;2.83;;
25049;SDS011;13046;49.814;9.918;2023-12-20T12:32:53;6.82;;;3.65;;
25049;SDS011;13046;49.814;9.918;2023-12-20T12:35:19;6.65;;;3.40;;
25049;SDS011;13046;49.814;9.918;2023-12-20T12:37:45;6.97;;;2.95;;
25049;SDS011;13046;49.814;9.918;2023-12-20T12:40:12;7.63;;;2.85;;
25049;SDS011;13046;49.814;9.918;2023-12-20T12:42:39;7.78;;;2.63;;
25049;SDS011;13046;49.814;9.918;2023-12-20T12:45:06;6.03;;;2.60;;
25049;SDS011;13046;49.814;9.918;2023-12-20T12:47:33;10.48;;;3.53;;
25049;SDS011;13046;49.814;9.918;2023-12-20T12:49:59;7.40;;;2.58;;
25049;SDS011;13046;49.814;9.918;2023-12-20T12:52:25;11.52;;;3.75;;
25049;SDS011;13046;49.814;9.918;2023-12-20T12:54:52;6.63;;;3.22;;
25049;SDS011;13046;49.814;9.918;2023-12-20T12:57:18;9.00;;;2.83;;
25049;SDS011;13046;49.814;9.918;2023-12-20T12:59:44;7.28;;;2.90;;
25049;SDS011;13046;49.814;9.918;2023-12-20T13:02:13;7.63;;;3.20;;
25049;SDS011;13046;49.814;9.918;2023-12-20T13:04:40;8.57;;;2.20;;
25049;SDS011;13046;49.814;9.918;2023-12-20T13:07:06;4.50;;;2.95;;
25049;SDS011;13046;49.814;9.918;2023-12-20T13:09:33;5.68;;;2.65;;
25049;SDS011;13046;49.814;9.918;2023-12-20T13:11:59;4.88;;;2.95;;
25049;SDS011;13046;49.814;9.918;2023-12-20T13:14:28;6.22;;;2.97;;
25049;SDS011;13046;49.814;9.918;2023-12-20T13:16:54;7.05;;;2.72;;
25049;SDS011;13046;49.814;9.918;2023-12-20T13:19:21;6.88;;;4.93;;
25049;SDS011;13046;49.814;9.918;2023-12-20T13:21:46;10.05;;;3.10;;
25049;SDS011;13046;49.814;9.918;2023-12-20T13:24:12;9.90;;;3.55;;
25049;SDS011;13046;49.814;9.918;2023-12-20T13:26:38;8.13;;;4.28;;
25049;SDS011;13046;49.814;9.918;2023-12-20T13:29:04;5.82;;;2.92;;
25049;SDS011;13046;49.814;9.918;2023-12-20T13:31:29;7.10;;;3.05;;
25049;SDS011;13046;49.814;9.918;2023-12-20T13:33:56;7.57;;;3.47;;
25049;SDS011;13046;49.814;9.918;2023-12-20T13:36:22;6.20;;;3.30;;
25049;SDS011;13046;49.814;9.918;2023-12-20T13:38:47;7.82;;;3.47;;
25049;SDS011;13046;49.814;9.918;2023-12-20T13:41:13;7.68;;;2.97;;
25049;SDS011;13046;49.814;9.918;2023-12-20T13:43:39;7.47;;;3.40;;
25049;SDS011;13046;49.814;9.918;2023-12-20T13:46:05;19.85;;;4.00;;
25049;SDS011;13046;49.814;9.918;2023-12-20T13:48:31;10.02;;;4.40;;
25049;SDS011;13046;49.814;9.918;2023-12-20T13:50:56;6.55;;;3.60;;
25049;SDS011;13046;49.814;9.918;2023-12-20T13:53:23;11.70;;;4.28;;
25049;SDS011;13046;49.814;9.918;2023-12-20T13:55:48;8.10;;;3.75;;
25049;SDS011;13046;49.814;9.918;2023-12-20T13:58:14;6.95;;;4.35;;
25049;SDS011;13046;49.814;9.918;2023-12-20T14:00:40;9.82;;;4.13;;
25049;SDS011;13046;49.814;9.918;2023-12-20T14:03:06;6.97;;;3.65;;
25049;SDS011;13046;49.814;9.918;2023-12-20T14:05:32;8.13;;;5.40;;
25049;SDS011;13046;49.814;9.918;2023-12-20T14:07:58;10.98;;;4.07;;
25049;SDS011;13046;49.814;9.918;2023-12-20T14:10:24;5.95;;;3.78;;
25049;SDS011;13046;49.814;9.918;2023-12-20T14:12:56;13.70;;;7.28;;
25049;SDS011;13046;49.814;9.918;2023-12-20T14:15:21;9.40;;;4.30;;
25049;SDS011;13046;49.814;9.918;2023-12-20T14:17:50;8.20;;;3.60;;
25049;SDS011;13046;49.814;9.918;2023-12-20T14:20:16;8.70;;;3.80;;
25049;SDS011;13046;49.814;9.918;2023-12-20T14:22:43;7.78;;;4.07;;
25049;SDS011;13046;49.814;9.918;2023-12-20T14:25:15;11.55;;;5.13;;
25049;SDS011;13046;49.814;9.918;2023-12-20T14:27:41;13.07;;;5.55;;
25049;SDS011;13046;49.814;9.918;2023-12-20T14:30:08;6.90;;;3.38;;
25049;SDS011;13046;49.814;9.918;2023-12-20T14:32:35;7.85;;;4.00;;
25049;SDS011;13046;49.814;9.918;2023-12-20T14:35:04;10.77;;;3.95;;
25049;SDS011;13046;49.814;9.918;2023-12-20T14:37:31;8.13;;;4.30;;
25049;SDS011;13046;49.814;9.918;2023-12-20T14:39:57;11.18;;;5.97;;
25049;SDS011;13046;49.814;9.918;2023-12-20T14:42:23;11.07;;;4.32;;
25049;SDS011;13046;49.814;9.918;2023-12-20T14:44:48;6.13;;;4.40;;